createdAt,value
2023-02-06T00:01:50.758Z,81.55
2023-02-06T00:04:19.899Z,81.54
2023-02-06T00:06:47.817Z,81.11
2023-02-06T00:09:15.835Z,80.68
2023-02-06T00:11:43.675Z,80.67
2023-02-06T00:14:11.525Z,80.64
2023-02-06T00:16:39.551Z,80.40
2023-02-06T00:19:07.490Z,79.73
2023-02-06T00:21:35.377Z,78.96
2023-02-06T00:24:04.467Z,78.51
2023-02-06T00:26:32.499Z,77.18
2023-02-06T00:29:00.761Z,78.37
2023-02-06T00:31:28.998Z,78.63
2023-02-06T00:33:56.861Z,79.89
2023-02-06T00:36:24.822Z,79.68
2023-02-06T00:38:55.024Z,76.89
2023-02-06T00:41:22.864Z,79.76
2023-02-06T00:43:50.709Z,79.71
2023-02-06T00:46:18.562Z,79.11
2023-02-06T00:48:46.465Z,79.48
2023-02-06T00:51:14.405Z,78.72
2023-02-06T00:53:42.253Z,78.91
2023-02-06T00:56:10.113Z,80.32
2023-02-06T00:58:37.983Z,79.55
2023-02-06T01:01:05.892Z,80.04
2023-02-06T01:03:34.338Z,80.24
2023-02-06T01:06:02.291Z,80.95
2023-02-06T01:08:30.101Z,82.06
2023-02-06T01:10:58.013Z,79.70
2023-02-06T01:13:26.908Z,81.05
2023-02-06T01:15:54.744Z,80.59
2023-02-06T01:18:22.612Z,80.80
2023-02-06T01:20:50.444Z,79.24
2023-02-06T01:23:18.303Z,78.44
2023-02-06T01:25:46.248Z,77.81
2023-02-06T01:28:14.102Z,77.31
2023-02-06T01:30:42.034Z,76.67
2023-02-06T01:33:09.922Z,76.76
2023-02-06T01:35:37.843Z,76.62
2023-02-06T01:38:05.734Z,76.53
2023-02-06T01:40:33.621Z,76.35
2023-02-06T01:43:02.077Z,75.03
2023-02-06T01:45:42.417Z,74.60
2023-02-06T01:48:28.902Z,77.42
2023-02-06T01:50:59.925Z,77.97
2023-02-06T01:53:30.560Z,78.03
2023-02-06T01:56:03.134Z,77.12
2023-02-06T01:58:43.662Z,78.79
2023-02-06T02:01:11.982Z,78.55
2023-02-06T02:03:45.530Z,79.23
2023-02-06T02:06:19.406Z,79.96
2023-02-06T02:08:51.978Z,78.44
2023-02-06T02:11:43.045Z,78.68
2023-02-06T02:14:15.920Z,79.08
2023-02-06T02:17:16.909Z,79.61
2023-02-06T02:20:43.823Z,79.92
2023-02-06T02:24:14.723Z,81.68
2023-02-06T02:27:15.888Z,80.06
2023-02-06T02:30:38.850Z,77.99
2023-02-06T02:33:23.512Z,79.38
2023-02-06T02:36:12.059Z,79.42
2023-02-06T02:39:29.360Z,79.14
2023-02-06T02:42:26.757Z,80.77
2023-02-06T02:45:16.493Z,80.22
2023-02-06T02:48:23.639Z,79.37
2023-02-06T02:50:55.058Z,79.74
2023-02-06T02:53:23.101Z,80.85
2023-02-06T02:55:50.991Z,81.99
2023-02-06T02:58:33.680Z,81.18
2023-02-06T03:01:11.792Z,80.27
2023-02-06T03:03:42.166Z,79.69
2023-02-06T03:06:52.016Z,78.03
2023-02-06T03:09:45.594Z,77.09
2023-02-06T03:12:44.460Z,78.26
2023-02-06T03:15:44.107Z,77.61
2023-02-06T03:19:11.677Z,76.63
2023-02-06T03:21:41.666Z,77.63
2023-02-06T03:24:24.490Z,77.95
2023-02-06T03:27:02.441Z,77.46
2023-02-06T03:29:34.794Z,76.75
2023-02-06T03:32:18.922Z,75.89
2023-02-06T03:35:20.081Z,76.56
2023-02-06T03:37:48.809Z,76.05
2023-02-06T03:40:18.633Z,76.84
2023-02-06T03:42:56.693Z,76.59
2023-02-06T03:45:36.306Z,76.87
2023-02-06T03:48:23.944Z,76.95
2023-02-06T03:50:56.092Z,76.55
2023-02-06T03:53:26.332Z,77.03
2023-02-06T03:56:01.533Z,76.82
2023-02-06T03:58:29.671Z,76.17
2023-02-06T04:00:57.946Z,76.04
2023-02-06T04:03:26.468Z,76.77
2023-02-06T04:05:54.375Z,76.80
2023-02-06T04:08:22.216Z,75.55
2023-02-06T04:10:50.151Z,77.82
2023-02-06T04:13:17.995Z,77.24
2023-02-06T04:15:46.069Z,76.84
2023-02-06T04:18:13.986Z,76.54
2023-02-06T04:20:41.837Z,77.32
2023-02-06T04:23:09.840Z,76.72
2023-02-06T04:25:38.083Z,76.44
2023-02-06T04:28:06.273Z,76.26
2023-02-06T04:30:34.307Z,75.92
2023-02-06T04:33:02.385Z,77.07
2023-02-06T04:35:30.361Z,78.61
2023-02-06T04:37:58.188Z,77.64
2023-02-06T04:40:28.428Z,78.13
2023-02-06T04:42:57.314Z,77.75
2023-02-06T04:45:25.586Z,78.69
2023-02-06T04:47:53.477Z,78.69
2023-02-06T04:50:21.482Z,78.27
2023-02-06T04:52:49.398Z,78.60
2023-02-06T04:55:17.357Z,78.10
2023-02-06T04:57:45.229Z,77.50
2023-02-06T05:00:14.617Z,77.84
2023-02-06T05:02:42.577Z,77.83
2023-02-06T05:05:12.245Z,77.35
2023-02-06T05:07:40.114Z,78.13
2023-02-06T05:10:09.329Z,77.73
2023-02-06T05:12:37.368Z,77.83
2023-02-06T05:15:07.636Z,77.82
2023-02-06T05:17:36.285Z,76.66
2023-02-06T05:20:06.508Z,77.00
2023-02-06T05:22:34.648Z,77.20
2023-02-06T05:25:02.707Z,76.76
2023-02-06T05:27:30.886Z,76.40
2023-02-06T05:29:58.996Z,76.14
2023-02-06T05:32:26.861Z,76.63
2023-02-06T05:34:54.801Z,77.00
2023-02-06T05:37:22.789Z,79.12
2023-02-06T05:39:53.757Z,78.47
2023-02-06T05:42:21.597Z,78.21
2023-02-06T05:44:49.561Z,79.13
2023-02-06T05:47:17.601Z,78.59
2023-02-06T05:49:45.478Z,79.55
2023-02-06T05:52:13.537Z,79.35
2023-02-06T05:54:41.453Z,79.12
2023-02-06T05:57:09.621Z,79.19
2023-02-06T05:59:37.965Z,79.76
2023-02-06T06:02:06.430Z,79.98
2023-02-06T06:04:34.345Z,80.03
2023-02-06T06:07:02.362Z,80.23
2023-02-06T06:09:30.284Z,80.45
2023-02-06T06:11:58.127Z,80.49
2023-02-06T06:14:26.019Z,80.75
2023-02-06T06:16:53.903Z,80.53
2023-02-06T06:19:21.832Z,80.68
2023-02-06T06:21:49.899Z,80.48
2023-02-06T06:24:18.009Z,80.58
2023-02-06T06:26:46.206Z,80.48
2023-02-06T06:29:14.300Z,80.29
2023-02-06T06:31:42.221Z,80.72
2023-02-06T06:34:10.696Z,80.75
2023-02-06T06:36:38.590Z,80.50
2023-02-06T06:39:06.472Z,80.46
2023-02-06T06:41:37.876Z,80.63
2023-02-06T06:44:05.880Z,80.45
2023-02-06T06:46:34.050Z,81.86
2023-02-06T06:49:01.974Z,81.48
2023-02-06T06:51:30.128Z,81.72
2023-02-06T06:53:58.124Z,81.81
2023-02-06T06:56:27.015Z,81.49
2023-02-06T06:58:55.568Z,81.12
2023-02-06T07:01:23.865Z,81.20
2023-02-06T07:03:52.132Z,80.92
2023-02-06T07:06:20.141Z,81.11
2023-02-06T07:08:48.309Z,80.68
2023-02-06T07:11:20.379Z,80.71
2023-02-06T07:13:48.349Z,81.06
2023-02-06T07:16:16.264Z,81.02
2023-02-06T07:18:44.185Z,80.65
2023-02-06T07:21:15.784Z,80.50
2023-02-06T07:23:43.789Z,80.40
2023-02-06T07:26:12.297Z,80.02
2023-02-06T07:28:41.460Z,80.27
2023-02-06T07:31:11.136Z,79.83
2023-02-06T07:33:39.288Z,80.28
2023-02-06T07:36:19.093Z,81.03
2023-02-06T07:38:47.408Z,80.77
2023-02-06T07:41:16.147Z,81.27
2023-02-06T07:43:44.769Z,79.75
2023-02-06T07:46:15.296Z,80.30
2023-02-06T07:48:43.579Z,80.71
2023-02-06T07:51:11.496Z,81.69
2023-02-06T07:53:39.696Z,82.07
2023-02-06T07:56:19.003Z,81.01
2023-02-06T07:58:55.879Z,80.86
2023-02-06T08:01:24.296Z,81.36
2023-02-06T08:03:54.633Z,80.97
2023-02-06T08:06:25.777Z,80.19
2023-02-06T08:08:56.476Z,81.16
2023-02-06T08:11:27.676Z,82.13
2023-02-06T08:13:55.881Z,81.55
2023-02-06T08:16:24.991Z,82.11
2023-02-06T08:18:54.982Z,82.74
2023-02-06T08:21:26.822Z,82.38
2023-02-06T08:24:00.140Z,81.32
2023-02-06T08:26:30.452Z,82.96
2023-02-06T08:29:03.643Z,80.91
2023-02-06T08:31:39.359Z,79.67
2023-02-06T08:34:12.263Z,80.43
2023-02-06T08:36:43.553Z,81.13
2023-02-06T08:39:14.830Z,80.71
2023-02-06T08:41:44.447Z,80.81
2023-02-06T08:44:17.252Z,80.92
2023-02-06T08:46:49.595Z,81.82
2023-02-06T08:49:22.477Z,81.59
2023-02-06T08:51:50.825Z,82.69
2023-02-06T08:54:22.864Z,84.25
2023-02-06T08:56:52.099Z,84.41
2023-02-06T08:59:20.857Z,82.77
2023-02-06T09:01:49.320Z,84.00
2023-02-06T09:04:17.664Z,84.29
2023-02-06T09:06:48.955Z,84.51
2023-02-06T09:09:16.995Z,84.74
2023-02-06T09:11:44.907Z,84.14
2023-02-06T09:14:18.392Z,85.47
2023-02-06T09:16:46.449Z,84.80
2023-02-06T09:19:17.087Z,84.90
2023-02-06T09:21:44.956Z,84.72
2023-02-06T09:24:12.896Z,88.64
2023-02-06T09:26:58.476Z,89.31
2023-02-06T09:29:31.574Z,88.33
2023-02-06T09:32:00.178Z,87.83
2023-02-06T09:34:28.502Z,87.98
2023-02-06T09:36:57.698Z,89.00
2023-02-06T09:39:26.150Z,88.91
2023-02-06T09:42:06.273Z,88.86
2023-02-06T09:44:42.713Z,88.98
2023-02-06T09:47:37.583Z,89.99
2023-02-06T09:50:30.651Z,91.79
2023-02-06T09:53:41.042Z,90.95
2023-02-06T09:56:31.077Z,92.49
2023-02-06T09:59:35.294Z,92.21
2023-02-06T10:02:46.096Z,92.25
2023-02-06T10:05:36.616Z,92.74
2023-02-06T10:09:05.332Z,91.26
2023-02-06T10:11:56.668Z,91.82
2023-02-06T10:14:56.482Z,92.43
2023-02-06T10:17:46.472Z,92.85
2023-02-06T10:20:36.128Z,92.37
2023-02-06T10:23:22.186Z,91.52
2023-02-06T10:26:19.054Z,91.55
2023-02-06T10:28:55.995Z,92.02
2023-02-06T10:31:54.601Z,92.11
2023-02-06T10:34:59.157Z,92.52
2023-02-06T10:38:08.607Z,91.38
2023-02-06T10:41:06.720Z,91.73
2023-02-06T10:44:22.991Z,91.74
2023-02-06T10:46:54.085Z,91.45
2023-02-06T10:49:44.151Z,92.12
2023-02-06T10:52:28.801Z,92.10
2023-02-06T10:55:26.650Z,92.87
2023-02-06T10:58:37.233Z,92.30
2023-02-06T11:01:24.634Z,91.48
2023-02-06T11:04:24.869Z,91.38
2023-02-06T11:07:02.357Z,91.10
2023-02-06T11:09:30.771Z,91.16
2023-02-06T11:12:00.722Z,90.84
2023-02-06T11:14:38.745Z,91.17
2023-02-06T11:17:06.645Z,90.68
2023-02-06T11:19:42.322Z,90.71
2023-02-06T11:22:25.815Z,91.43
2023-02-06T11:25:07.817Z,90.95
2023-02-06T11:27:36.584Z,90.95
2023-02-06T11:30:25.103Z,90.85
2023-02-06T11:33:21.186Z,90.90
2023-02-06T11:35:59.790Z,90.88
2023-02-06T11:38:30.829Z,91.04
2023-02-06T11:41:20.716Z,91.44
2023-02-06T11:43:56.008Z,91.54
2023-02-06T11:46:36.916Z,90.74
2023-02-06T11:49:31.807Z,90.67
2023-02-06T11:52:01.016Z,90.90
2023-02-06T11:54:35.320Z,90.84
2023-02-06T11:57:34.030Z,91.00
2023-02-06T12:00:25.827Z,91.36
2023-02-06T12:02:55.871Z,90.57
2023-02-06T12:05:30.811Z,90.94
2023-02-06T12:08:19.333Z,91.04
2023-02-06T12:11:04.556Z,91.00
2023-02-06T12:13:47.537Z,90.43
2023-02-06T12:16:16.222Z,90.34
2023-02-06T12:18:50.987Z,90.01
2023-02-06T12:21:40.811Z,90.03
2023-02-06T12:24:28.656Z,89.68
2023-02-06T12:27:02.139Z,89.86
2023-02-06T12:29:40.640Z,89.34
2023-02-06T12:32:20.607Z,89.63
2023-02-06T12:35:00.714Z,89.03
2023-02-06T12:37:47.454Z,88.31
2023-02-06T12:40:58.886Z,88.12
2023-02-06T12:43:28.509Z,87.56
2023-02-06T12:46:22.587Z,87.98
2023-02-06T12:49:16.265Z,86.91
2023-02-06T12:52:14.454Z,87.00
2023-02-06T12:55:26.110Z,87.04
2023-02-06T12:57:55.333Z,85.54
2023-02-06T13:00:56.906Z,86.91
2023-02-06T13:03:43.660Z,87.63
2023-02-06T13:06:29.742Z,87.09
2023-02-06T13:09:06.401Z,85.74
2023-02-06T13:11:40.535Z,85.04
2023-02-06T13:14:19.454Z,84.59
2023-02-06T13:17:07.809Z,85.00
2023-02-06T13:19:41.677Z,85.28
2023-02-06T13:22:13.381Z,85.41
2023-02-06T13:24:45.351Z,85.56
2023-02-06T13:27:24.597Z,85.79
2023-02-06T13:29:53.991Z,85.76
2023-02-06T13:32:41.972Z,86.21
2023-02-06T13:35:26.376Z,85.31
2023-02-06T13:38:35.208Z,85.46
2023-02-06T13:41:37.173Z,84.72
2023-02-06T13:44:23.037Z,84.99
2023-02-06T13:47:21.325Z,85.40
2023-02-06T13:50:23.863Z,84.03
2023-02-06T13:53:42.517Z,86.60
2023-02-06T13:56:52.260Z,85.83
2023-02-06T13:59:35.997Z,85.57
2023-02-06T14:02:41.770Z,84.97
2023-02-06T14:05:57.610Z,86.33
2023-02-06T14:08:46.973Z,84.63
2023-02-06T14:12:15.977Z,85.33
2023-02-06T14:15:11.360Z,84.97
2023-02-06T14:18:07.081Z,84.50
2023-02-06T14:20:54.711Z,83.85
2023-02-06T14:23:59.108Z,84.47
2023-02-06T14:26:57.592Z,83.53
2023-02-06T14:30:02.500Z,82.79
2023-02-06T14:33:06.680Z,82.84
2023-02-06T14:36:25.072Z,84.10
2023-02-06T14:39:25.355Z,82.47
2023-02-06T14:41:54.135Z,83.35
2023-02-06T14:44:31.016Z,83.03
2023-02-06T14:46:59.301Z,81.65
2023-02-06T14:49:38.029Z,80.20
2023-02-06T14:53:35.285Z,80.57
2023-02-06T14:56:24.547Z,82.07
2023-02-06T14:58:52.621Z,81.78
2023-02-06T15:01:32.790Z,82.50
2023-02-06T15:04:27.060Z,81.96
2023-02-06T15:07:02.083Z,82.55
2023-02-06T15:09:46.490Z,82.41
2023-02-06T15:12:26.609Z,81.81
2023-02-06T15:15:25.663Z,80.78
2023-02-06T15:18:17.127Z,80.86
2023-02-06T15:20:59.221Z,80.69
2023-02-06T15:24:16.297Z,80.40
2023-02-06T15:27:02.014Z,81.77
2023-02-06T15:29:30.387Z,82.38
2023-02-06T15:32:21.626Z,82.08
2023-02-06T15:34:53.233Z,81.52
2023-02-06T15:37:31.292Z,82.84
2023-02-06T15:40:15.273Z,84.73
2023-02-06T15:42:43.442Z,84.94
2023-02-06T15:45:37.026Z,85.04
2023-02-06T15:48:52.972Z,84.77
2023-02-06T15:51:50.567Z,84.69
2023-02-06T15:54:26.234Z,83.23
2023-02-06T15:57:14.914Z,84.40
2023-02-06T15:59:43.547Z,83.98
2023-02-06T16:02:45.890Z,84.48
2023-02-06T16:05:34.230Z,82.81
2023-02-06T16:08:12.956Z,82.57
2023-02-06T16:10:41.529Z,83.68
2023-02-06T16:13:16.953Z,84.63
2023-02-06T16:16:11.523Z,84.79
2023-02-06T16:18:42.772Z,84.44
2023-02-06T16:21:17.250Z,84.31
2023-02-06T16:23:51.567Z,83.48
2023-02-06T16:26:44.177Z,83.39
2023-02-06T16:29:32.441Z,83.76
2023-02-06T16:32:22.092Z,83.68
2023-02-06T16:34:50.641Z,83.75
2023-02-06T16:37:29.431Z,83.59
2023-02-06T16:39:57.474Z,84.78
2023-02-06T16:42:34.749Z,85.23
2023-02-06T16:45:18.936Z,85.40
2023-02-06T16:47:47.109Z,84.96
2023-02-06T16:50:16.763Z,85.46
2023-02-06T16:52:55.856Z,85.89
2023-02-06T16:55:26.303Z,86.11
2023-02-06T16:58:00.465Z,86.64
2023-02-06T17:00:31.696Z,86.04
2023-02-06T17:02:59.971Z,85.28
2023-02-06T17:05:29.315Z,85.09
2023-02-06T17:07:57.369Z,85.56
2023-02-06T17:10:26.802Z,86.32
2023-02-06T17:12:54.736Z,85.91
2023-02-06T17:15:22.803Z,85.59
2023-02-06T17:17:51.827Z,87.10
2023-02-06T17:20:39.966Z,86.74
2023-02-06T17:23:10.951Z,86.65
2023-02-06T17:25:42.015Z,85.01
2023-02-06T17:28:16.689Z,85.58
2023-02-06T17:30:46.303Z,84.79
2023-02-06T17:33:14.340Z,85.24
2023-02-06T17:35:42.278Z,84.78
2023-02-06T17:38:10.513Z,84.22
2023-02-06T17:40:40.926Z,84.72
2023-02-06T17:43:08.949Z,83.41
2023-02-06T17:45:39.600Z,83.05
2023-02-06T17:48:08.744Z,81.35
2023-02-06T17:50:39.157Z,82.45
2023-02-06T17:53:11.907Z,83.38
2023-02-06T17:55:41.095Z,82.78
2023-02-06T17:58:09.788Z,84.06
2023-02-06T18:00:38.218Z,82.93
2023-02-06T18:03:06.460Z,82.00
2023-02-06T18:05:34.826Z,81.93
2023-02-06T18:08:02.841Z,83.73
2023-02-06T18:10:30.877Z,82.78
2023-02-06T18:12:58.898Z,83.42
2023-02-06T18:15:26.758Z,84.80
2023-02-06T18:17:54.977Z,85.00
2023-02-06T18:20:22.933Z,84.92
2023-02-06T18:22:50.808Z,84.37
2023-02-06T18:25:18.802Z,84.01
2023-02-06T18:27:47.825Z,84.81
2023-02-06T18:30:17.157Z,83.60
2023-02-06T18:32:45.121Z,83.71
2023-02-06T18:35:14.851Z,83.22
2023-02-06T18:37:43.751Z,83.94
2023-02-06T18:40:12.611Z,84.54
2023-02-06T18:42:54.492Z,83.58
2023-02-06T18:45:31.178Z,84.20
2023-02-06T18:47:59.200Z,82.74
2023-02-06T18:50:27.470Z,82.48
2023-02-06T18:52:55.769Z,81.21
2023-02-06T18:55:23.833Z,83.49
2023-02-06T18:57:52.796Z,83.96
2023-02-06T19:00:23.981Z,83.22
2023-02-06T19:02:52.023Z,83.32
2023-02-06T19:05:20.817Z,84.04
2023-02-06T19:07:52.152Z,83.88
2023-02-06T19:10:21.508Z,84.40
2023-02-06T19:12:49.408Z,83.26
2023-02-06T19:15:17.354Z,84.35
2023-02-06T19:17:45.344Z,84.10
2023-02-06T19:20:13.631Z,84.21
2023-02-06T19:22:41.566Z,84.37
2023-02-06T19:25:14.241Z,83.99
2023-02-06T19:27:42.505Z,83.37
2023-02-06T19:30:13.455Z,83.84
2023-02-06T19:32:41.932Z,85.27
2023-02-06T19:35:11.875Z,84.54
2023-02-06T19:37:40.125Z,84.18
2023-02-06T19:40:08.597Z,84.92
2023-02-06T19:42:38.885Z,85.71
2023-02-06T19:45:07.336Z,84.55
2023-02-06T19:47:36.101Z,84.52
2023-02-06T19:50:05.114Z,84.84
2023-02-06T19:52:35.197Z,84.31
2023-02-06T19:55:04.129Z,83.13
2023-02-06T19:57:32.050Z,82.46
2023-02-06T19:59:59.972Z,83.83
2023-02-06T20:02:29.451Z,84.52
2023-02-06T20:04:57.381Z,83.45
2023-02-06T20:07:25.264Z,81.56
2023-02-06T20:09:55.416Z,81.68
2023-02-06T20:12:26.074Z,83.27
2023-02-06T20:14:53.982Z,84.90
2023-02-06T20:17:23.428Z,84.56
2023-02-06T20:19:51.331Z,83.81
2023-02-06T20:22:19.377Z,81.87
2023-02-06T20:24:47.733Z,83.63
2023-02-06T20:27:18.470Z,83.45
2023-02-06T20:29:47.142Z,83.54
2023-02-06T20:32:17.011Z,83.70
2023-02-06T20:34:45.807Z,83.74
2023-02-06T20:37:14.030Z,83.62
2023-02-06T20:39:41.906Z,83.60
2023-02-06T20:42:09.832Z,83.33
2023-02-06T20:44:37.717Z,82.76
2023-02-06T20:47:05.640Z,82.31
2023-02-06T20:49:33.555Z,80.67
2023-02-06T20:52:03.220Z,80.81
2023-02-06T20:54:31.186Z,82.65
2023-02-06T20:57:00.471Z,84.54
2023-02-06T20:59:29.842Z,84.83
2023-02-06T21:01:58.284Z,85.51
2023-02-06T21:04:26.174Z,85.16
2023-02-06T21:06:55.077Z,83.39
2023-02-06T21:09:22.924Z,83.78
2023-02-06T21:11:50.821Z,83.53
2023-02-06T21:14:19.961Z,84.18
2023-02-06T21:16:48.730Z,84.66
2023-02-06T21:19:20.469Z,84.39
2023-02-06T21:21:49.577Z,83.43
2023-02-06T21:24:18.551Z,82.39
2023-02-06T21:26:46.944Z,82.53
2023-02-06T21:29:15.823Z,84.28
2023-02-06T21:31:46.002Z,84.56
2023-02-06T21:34:22.774Z,84.81
2023-02-06T21:36:51.037Z,84.64
2023-02-06T21:39:23.346Z,84.68
2023-02-06T21:41:53.744Z,85.53
2023-02-06T21:44:24.374Z,84.89
2023-02-06T21:46:53.177Z,84.07
2023-02-06T21:49:21.629Z,84.84
2023-02-06T21:51:50.894Z,85.22
2023-02-06T21:54:19.251Z,83.90
2023-02-06T21:56:47.174Z,84.20
2023-02-06T21:59:15.042Z,85.10
2023-02-06T22:01:43.227Z,85.70
2023-02-06T22:04:12.530Z,85.04
2023-02-06T22:06:40.789Z,86.52
2023-02-06T22:09:15.219Z,86.92
2023-02-06T22:11:43.947Z,85.01
2023-02-06T22:14:16.976Z,85.42
2023-02-06T22:16:48.872Z,84.42
2023-02-06T22:19:17.908Z,83.59
2023-02-06T22:21:45.917Z,84.54
2023-02-06T22:24:14.234Z,83.62
2023-02-06T22:26:43.064Z,83.81
2023-02-06T22:29:16.247Z,84.28
2023-02-06T22:31:45.109Z,82.30
2023-02-06T22:34:19.513Z,83.35
2023-02-06T22:36:50.920Z,83.58
2023-02-06T22:39:19.088Z,82.08
2023-02-06T22:41:47.769Z,82.43
2023-02-06T22:44:18.960Z,80.12
2023-02-06T22:46:51.845Z,79.74
2023-02-06T22:49:21.507Z,81.15
2023-02-06T22:51:49.473Z,81.65
2023-02-06T22:54:17.433Z,81.45
2023-02-06T22:56:45.601Z,80.81
2023-02-06T22:59:17.193Z,82.43
2023-02-06T23:01:53.524Z,83.05
2023-02-06T23:04:28.937Z,82.11
2023-02-06T23:06:57.544Z,81.32
2023-02-06T23:09:38.018Z,82.72
2023-02-06T23:12:06.911Z,81.73
2023-02-06T23:14:34.899Z,82.11
2023-02-06T23:17:05.580Z,81.88
2023-02-06T23:19:33.914Z,79.68
2023-02-06T23:22:04.236Z,80.65
2023-02-06T23:24:32.757Z,81.95
2023-02-06T23:27:02.131Z,83.12
2023-02-06T23:29:30.815Z,83.02
2023-02-06T23:32:01.582Z,82.63
2023-02-06T23:34:29.563Z,81.36
2023-02-06T23:36:57.580Z,79.19
2023-02-06T23:39:25.535Z,79.48
2023-02-06T23:41:53.542Z,80.65
2023-02-06T23:44:21.459Z,81.36
2023-02-06T23:46:49.424Z,81.80
2023-02-06T23:49:17.386Z,82.58
2023-02-06T23:51:45.322Z,82.78
2023-02-06T23:54:13.435Z,82.67
2023-02-06T23:56:41.411Z,83.48
2023-02-06T23:59:10.574Z,83.39
